Time;durP1;ratioP1;P1;durP2;ratioP2;P2;SDS_P1;SDS_P2;PMS_P1;PMS_P2;Temp;Humidity;BMP_temperature;BMP_pressure;BME280_temperature;BME280_humidity;BME280_pressure;Samples;Min_cycle;Max_cycle;Signal;HPM_P1;HPM_P2
2021/04/17 00:00:08;;;;;;;5.15;3.50;;;8.70;99.90;;;;;;4162553;28;20638;-67
2021/04/17 00:02:10;;;;;;;8.43;4.35;;;8.60;99.90;;;;;;4164389;28;20040;-67
2021/04/17 00:04:11;;;;;;;5.25;3.40;;;8.60;99.90;;;;;;4158753;28;20431;-67
2021/04/17 00:06:13;;;;;;;8.23;3.77;;;8.60;99.90;;;;;;4163532;28;20389;-67
2021/04/17 00:08:13;;;;;;;5.35;3.88;;;8.60;99.90;;;;;;4161155;28;20036;-67
2021/04/17 00:10:14;;;;;;;6.32;3.47;;;8.60;99.90;;;;;;4163612;28;20061;-67
2021/04/17 00:12:19;;;;;;;4.40;3.20;;;8.60;99.90;;;;;;4162381;28;20037;-67
2021/04/17 00:14:29;;;;;;;5.43;3.38;;;8.60;99.90;;;;;;4163299;28;20053;-67
2021/04/17 00:16:30;;;;;;;5.93;3.47;;;8.60;99.90;;;;;;4157758;28;20498;-67
2021/04/17 00:18:30;;;;;;;5.75;3.97;;;8.60;99.90;;;;;;4164916;28;20123;-67
2021/04/17 00:20:31;;;;;;;5.63;3.83;;;8.50;99.90;;;;;;4162267;28;20124;-67
2021/04/17 00:22:32;;;;;;;8.23;3.97;;;8.50;99.90;;;;;;4160515;28;20034;-67
2021/04/17 00:24:32;;;;;;;5.80;3.28;;;8.50;99.90;;;;;;4161816;28;20025;-67
2021/04/17 00:26:34;;;;;;;5.07;3.80;;;8.50;99.90;;;;;;4162182;28;20466;-67
2021/04/17 00:28:35;;;;;;;6.27;3.60;;;8.50;99.90;;;;;;4159948;28;20056;-67
2021/04/17 00:30:35;;;;;;;6.85;3.70;;;8.50;99.90;;;;;;4179021;28;20746;-67
2021/04/17 00:32:36;;;;;;;5.95;3.35;;;8.50;99.90;;;;;;4161714;28;20661;-67
2021/04/17 00:34:37;;;;;;;6.75;3.88;;;8.50;99.90;;;;;;4159801;28;20054;-67
2021/04/17 00:36:37;;;;;;;4.47;3.45;;;8.50;99.90;;;;;;4163642;28;20370;-67
2021/04/17 00:38:38;;;;;;;6.80;4.28;;;8.50;99.90;;;;;;4155130;28;20042;-67
2021/04/17 00:40:39;;;;;;;8.68;3.58;;;8.50;99.90;;;;;;4161048;28;20033;-67
2021/04/17 00:42:39;;;;;;;7.15;4.25;;;8.40;99.90;;;;;;4162799;28;20041;-67
2021/04/17 00:44:40;;;;;;;8.07;3.75;;;8.40;99.90;;;;;;4161845;28;20033;-67
2021/04/17 00:46:41;;;;;;;4.97;3.70;;;8.40;99.90;;;;;;4160728;28;20041;-67
2021/04/17 00:48:42;;;;;;;6.43;3.92;;;8.40;99.90;;;;;;4159164;28;20060;-67
2021/04/17 00:50:42;;;;;;;5.93;3.65;;;8.40;99.90;;;;;;4160878;28;20045;-67
2021/04/17 00:52:43;;;;;;;7.35;4.18;;;8.40;99.90;;;;;;4164046;28;20029;-67
2021/04/17 00:54:44;;;;;;;6.05;3.60;;;8.40;99.90;;;;;;4160656;28;20038;-67
2021/04/17 00:56:44;;;;;;;5.05;3.58;;;8.40;99.90;;;;;;4160749;28;20030;-67
2021/04/17 00:58:45;;;;;;;6.20;3.47;;;8.40;99.90;;;;;;4161270;28;20107;-67
2021/04/17 01:00:46;;;;;;;5.45;3.70;;;8.40;99.90;;;;;;4158967;28;20100;-67
2021/04/17 01:02:55;;;;;;;6.47;3.67;;;8.40;99.90;;;;;;4160058;28;20428;-67
2021/04/17 01:04:59;;;;;;;5.70;3.92;;;8.40;99.90;;;;;;4160546;28;20039;-67
2021/04/17 01:07:12;;;;;;;5.75;3.63;;;8.30;99.90;;;;;;4159080;28;20021;-67
2021/04/17 01:09:24;;;;;;;9.52;3.80;;;8.30;99.90;;;;;;4159559;28;20044;-67
2021/04/17 01:11:47;;;;;;;7.85;4.28;;;8.30;99.90;;;;;;4159967;28;20036;-67
2021/04/17 01:13:48;;;;;;;7.70;3.83;;;8.30;99.90;;;;;;4184079;28;20074;-67
2021/04/17 01:15:50;;;;;;;10.48;4.65;;;8.30;99.90;;;;;;4172206;28;20774;-67
2021/04/17 01:17:54;;;;;;;7.53;4.03;;;8.20;99.90;;;;;;4157452;28;20048;-67
2021/04/17 01:20:17;;;;;;;7.40;3.75;;;8.20;99.90;;;;;;4163952;28;20057;-67
2021/04/17 01:22:23;;;;;;;5.93;3.40;;;8.20;99.90;;;;;;4160873;28;20703;-67
2021/04/17 01:24:27;;;;;;;6.20;3.95;;;8.10;99.90;;;;;;4156832;28;20095;-67
2021/04/17 01:26:28;;;;;;;6.30;3.90;;;8.10;99.90;;;;;;4177038;28;20132;-67
2021/04/17 01:28:32;;;;;;;6.47;4.30;;;8.10;99.90;;;;;;4162863;28;20029;-67
2021/04/17 01:30:33;;;;;;;8.48;4.00;;;8.10;99.90;;;;;;4157913;28;20037;-67
2021/04/17 01:32:35;;;;;;;6.65;3.70;;;8.10;99.90;;;;;;4161344;28;20159;-67
2021/04/17 01:34:37;;;;;;;8.03;4.37;;;8.00;99.90;;;;;;4161563;28;20061;-67
2021/04/17 01:36:39;;;;;;;4.47;3.13;;;8.10;99.90;;;;;;4163999;28;20029;-67
2021/04/17 01:38:50;;;;;;;7.93;3.28;;;8.00;99.90;;;;;;4161250;28;20026;-67
2021/04/17 01:40:58;;;;;;;8.10;4.05;;;8.00;99.90;;;;;;4159905;28;20485;-67
2021/04/17 01:43:00;;;;;;;6.55;3.88;;;8.00;99.90;;;;;;4158095;28;20551;-67
2021/04/17 01:45:01;;;;;;;6.28;3.65;;;7.90;99.90;;;;;;4159257;28;20033;-67
2021/04/17 01:47:09;;;;;;;8.48;4.05;;;8.00;99.90;;;;;;4161699;28;20771;-67
2021/04/17 01:49:12;;;;;;;8.55;3.88;;;7.90;99.90;;;;;;4184593;28;20643;-67
2021/04/17 01:51:12;;;;;;;;;;;7.90;99.90;;;;;;4161286;28;20099;-67
2021/04/17 01:53:18;;;;;;;7.85;3.58;;;7.90;99.90;;;;;;4159243;28;19913;-67
2021/04/17 01:55:19;;;;;;;5.53;3.38;;;7.80;99.90;;;;;;4192383;28;20028;-67
2021/04/17 01:57:24;;;;;;;6.25;3.85;;;7.80;99.90;;;;;;4164592;28;20037;-67
2021/04/17 01:59:27;;;;;;;7.32;3.63;;;7.80;99.90;;;;;;4161933;28;20386;-67
2021/04/17 02:01:28;;;;;;;5.20;3.35;;;7.70;99.90;;;;;;4159207;28;20524;-67
2021/04/17 02:03:29;;;;;;;8.73;4.32;;;7.70;99.90;;;;;;4156750;28;20124;-67
2021/04/17 02:05:30;;;;;;;7.07;3.70;;;7.70;99.90;;;;;;4159844;28;20509;-67
2021/04/17 02:07:30;;;;;;;6.60;3.92;;;7.70;99.90;;;;;;4161787;28;20124;-67
2021/04/17 02:09:31;;;;;;;5.43;3.50;;;7.70;99.90;;;;;;4156237;28;20038;-68
2021/04/17 02:11:32;;;;;;;5.63;3.40;;;7.70;99.90;;;;;;4160692;28;20148;-67
2021/04/17 02:13:35;;;;;;;5.40;3.63;;;7.70;99.90;;;;;;4160442;28;20030;-67
2021/04/17 02:15:37;;;;;;;6.22;3.58;;;7.60;99.90;;;;;;4143224;28;20113;-67
2021/04/17 02:17:44;;;;;;;6.30;3.38;;;7.70;99.90;;;;;;4160863;28;20037;-67
2021/04/17 02:20:03;;;;;;;5.35;3.20;;;7.70;99.90;;;;;;4160370;28;20593;-67
2021/04/17 02:22:04;;;;;;;9.30;3.70;;;7.60;99.90;;;;;;4156013;28;20033;-67
2021/04/17 02:24:07;;;;;;;6.40;3.75;;;7.60;99.90;;;;;;4161703;28;20033;-67
2021/04/17 02:26:07;;;;;;;5.40;3.38;;;7.60;99.90;;;;;;4167865;28;20056;-67
2021/04/17 02:28:08;;;;;;;6.07;3.65;;;7.60;99.90;;;;;;4161170;28;20033;-67
2021/04/17 02:30:09;;;;;;;6.45;3.85;;;7.60;99.90;;;;;;4159278;28;20032;-67
2021/04/17 02:32:15;;;;;;;5.25;3.55;;;7.60;99.90;;;;;;4161895;28;20064;-67
2021/04/17 02:34:16;;;;;;;5.30;3.42;;;7.50;99.90;;;;;;4163744;28;20517;-67
2021/04/17 02:36:17;;;;;;;5.13;3.40;;;7.50;99.90;;;;;;4162060;28;20025;-67
2021/04/17 02:38:18;;;;;;;5.78;3.55;;;7.50;99.90;;;;;;4159044;28;20435;-67
2021/04/17 02:40:19;;;;;;;6.30;3.60;;;7.50;99.90;;;;;;4161452;28;20031;-67
2021/04/17 02:42:19;;;;;;;5.65;3.55;;;7.40;99.90;;;;;;4157992;28;20437;-67
2021/04/17 02:44:20;;;;;;;7.50;4.10;;;7.40;99.90;;;;;;4159006;28;20427;-67
2021/04/17 02:46:20;;;;;;;5.97;3.80;;;7.40;99.90;;;;;;4172523;28;20029;-67
2021/04/17 02:48:21;;;;;;;6.65;3.70;;;7.40;99.90;;;;;;4161399;28;20040;-67
2021/04/17 02:50:22;;;;;;;6.38;3.85;;;7.30;99.90;;;;;;4160456;28;20427;-67
2021/04/17 02:52:23;;;;;;;7.57;3.78;;;7.30;99.90;;;;;;4175937;28;20170;-67
2021/04/17 02:54:24;;;;;;;7.82;3.95;;;7.30;99.90;;;;;;4159721;28;20037;-67
2021/04/17 02:56:24;;;;;;;5.22;3.47;;;7.30;99.90;;;;;;4175761;28;20037;-67
2021/04/17 02:58:25;;;;;;;4.65;3.35;;;7.20;99.90;;;;;;4160796;28;20050;-67
2021/04/17 03:00:26;;;;;;;6.57;3.40;;;7.20;99.90;;;;;;4161260;28;20033;-67
2021/04/17 03:02:26;;;;;;;6.50;3.45;;;7.20;99.90;;;;;;4158978;28;20034;-67
2021/04/17 03:04:27;;;;;;;6.07;3.72;;;7.20;99.90;;;;;;4162789;28;20026;-67
2021/04/17 03:06:28;;;;;;;7.65;3.80;;;7.20;99.90;;;;;;4159711;28;20052;-67
2021/04/17 03:08:28;;;;;;;7.15;3.65;;;7.20;99.90;;;;;;4159568;28;20037;-67
2021/04/17 03:10:29;;;;;;;7.28;3.80;;;7.20;99.90;;;;;;4174783;28;20048;-67
2021/04/17 03:12:29;;;;;;;6.30;3.53;;;7.10;99.90;;;;;;4159850;28;20079;-67
2021/04/17 03:14:30;;;;;;;7.43;3.63;;;7.10;99.90;;;;;;4160234;28;20045;-67
2021/04/17 03:16:30;;;;;;;10.63;3.55;;;7.10;99.90;;;;;;4156954;28;20045;-67
2021/04/17 03:18:31;;;;;;;7.53;3.85;;;7.10;99.90;;;;;;4157973;28;20037;-67
2021/04/17 03:20:32;;;;;;;7.05;3.90;;;7.00;99.90;;;;;;4156096;28;20041;-67
2021/04/17 03:22:34;;;;;;;8.85;3.90;;;7.00;99.90;;;;;;4163967;28;20045;-67
2021/04/17 03:24:35;;;;;;;7.35;3.40;;;7.00;99.90;;;;;;4164134;28;20099;-67
2021/04/17 03:26:36;;;;;;;6.85;3.47;;;7.00;99.90;;;;;;4162228;28;20159;-67
2021/04/17 03:28:36;;;;;;;6.63;3.35;;;7.00;99.90;;;;;;4163165;28;20675;-67
2021/04/17 03:30:37;;;;;;;5.95;3.45;;;7.00;99.90;;;;;;4161833;28;20718;-67
2021/04/17 03:32:38;;;;;;;9.32;4.13;;;6.90;99.90;;;;;;4165639;28;20065;-67
2021/04/17 03:34:38;;;;;;;6.72;3.55;;;6.90;99.90;;;;;;4162725;28;20042;-67
2021/04/17 03:36:39;;;;;;;6.78;3.60;;;6.90;99.90;;;;;;4163135;28;20044;-67
2021/04/17 03:38:39;;;;;;;5.68;3.42;;;6.80;99.90;;;;;;4164104;28;20029;-67
2021/04/17 03:40:40;;;;;;;7.45;4.18;;;6.80;99.90;;;;;;4165862;28;20040;-67
2021/04/17 03:42:42;;;;;;;6.35;3.63;;;6.80;99.90;;;;;;4173438;28;20132;-67
2021/04/17 03:44:42;;;;;;;6.93;3.70;;;6.80;99.90;;;;;;4163840;28;20057;-67
2021/04/17 03:46:43;;;;;;;5.25;3.50;;;6.80;99.90;;;;;;4159995;28;21021;-67
2021/04/17 03:48:43;;;;;;;7.32;3.67;;;6.70;99.90;;;;;;4165176;28;20052;-67
2021/04/17 03:50:44;;;;;;;6.32;3.65;;;6.70;99.90;;;;;;4163482;28;20489;-67
2021/04/17 03:52:45;;;;;;;6.70;3.72;;;6.70;99.90;;;;;;4162353;28;20025;-67
2021/04/17 03:54:45;;;;;;;6.22;3.80;;;6.60;99.90;;;;;;4164325;28;20125;-67
2021/04/17 03:56:46;;;;;;;6.30;3.55;;;6.70;99.90;;;;;;4157838;28;20037;-67
2021/04/17 03:58:46;;;;;;;5.88;3.35;;;6.60;99.90;;;;;;4160235;28;20092;-67
2021/04/17 04:00:47;;;;;;;14.30;3.55;;;6.60;99.90;;;;;;4164829;28;20033;-67
2021/04/17 04:02:49;;;;;;;7.60;3.85;;;6.60;99.90;;;;;;4162928;28;20124;-67
2021/04/17 04:04:49;;;;;;;6.32;3.88;;;6.50;99.90;;;;;;4160215;28;20431;-67
2021/04/17 04:06:50;;;;;;;7.32;3.83;;;6.50;99.90;;;;;;4163171;28;20034;-67
2021/04/17 04:08:51;;;;;;;8.15;4.20;;;6.50;99.90;;;;;;4165076;28;20068;-67
2021/04/17 04:10:52;;;;;;;7.90;4.25;;;6.40;99.90;;;;;;4164409;28;20037;-67
2021/04/17 04:12:52;;;;;;;8.90;4.28;;;6.40;99.90;;;;;;4160604;28;20190;-67
2021/04/17 04:14:53;;;;;;;7.90;4.25;;;6.40;99.90;;;;;;4163294;28;20065;-67
2021/04/17 04:16:53;;;;;;;10.00;4.55;;;6.40;99.90;;;;;;4163599;28;20025;-67
2021/04/17 04:18:54;;;;;;;6.93;4.20;;;6.30;99.90;;;;;;4162977;28;20045;-67
2021/04/17 04:20:55;;;;;;;11.45;4.78;;;6.30;99.90;;;;;;4160918;28;20128;-67
2021/04/17 04:22:55;;;;;;;9.60;4.70;;;6.30;99.90;;;;;;4190467;28;20029;-67
2021/04/17 04:24:56;;;;;;;7.30;4.05;;;6.30;99.90;;;;;;4162169;28;20056;-67
2021/04/17 04:26:56;;;;;;;7.40;4.00;;;6.20;99.90;;;;;;4160921;28;20087;-67
2021/04/17 04:28:57;;;;;;;8.13;4.43;;;6.20;99.90;;;;;;4161579;28;20029;-67
2021/04/17 04:30:58;;;;;;;7.05;4.05;;;6.20;99.90;;;;;;4164149;28;20053;-67
2021/04/17 04:32:59;;;;;;;6.60;4.25;;;6.20;99.90;;;;;;4160154;28;20060;-67
2021/04/17 04:35:00;;;;;;;7.38;4.35;;;6.20;99.90;;;;;;4163580;28;20083;-67
2021/04/17 04:37:00;;;;;;;9.77;4.75;;;6.20;99.90;;;;;;4156622;28;20026;-67
2021/04/17 04:39:01;;;;;;;8.90;4.05;;;6.10;99.90;;;;;;4158194;28;20080;-67
2021/04/17 04:41:02;;;;;;;7.70;4.32;;;6.10;99.90;;;;;;4185039;28;20091;-67
2021/04/17 04:43:03;;;;;;;8.48;4.50;;;6.10;99.90;;;;;;4158617;28;20037;-67
2021/04/17 04:45:06;;;;;;;9.32;4.88;;;6.10;99.90;;;;;;4158746;28;20033;-67
2021/04/17 04:47:06;;;;;;;11.25;4.95;;;6.10;99.90;;;;;;4159415;28;20022;-67
2021/04/17 04:49:07;;;;;;;7.38;3.88;;;6.00;99.90;;;;;;4156800;28;20057;-67
2021/04/17 04:51:10;;;;;;;8.07;4.07;;;6.00;99.90;;;;;;4159245;28;20030;-67
2021/04/17 04:53:10;;;;;;;;;;;6.00;99.90;;;;;;4158622;28;20123;-67
2021/04/17 04:55:11;;;;;;;7.25;4.57;;;6.00;99.90;;;;;;4155271;28;20003;-67
2021/04/17 04:57:12;;;;;;;7.22;4.65;;;6.00;99.90;;;;;;4158660;28;20039;-68
2021/04/17 04:59:12;;;;;;;9.82;4.97;;;6.00;99.90;;;;;;4156831;28;20100;-67
2021/04/17 05:01:13;;;;;;;9.13;4.82;;;6.00;99.90;;;;;;4158834;28;20168;-67
2021/04/17 05:03:13;;;;;;;7.95;4.40;;;6.00;99.90;;;;;;4158756;28;20036;-67
2021/04/17 05:05:14;;;;;;;10.02;3.97;;;6.00;99.90;;;;;;4155030;28;20482;-67
2021/04/17 05:07:15;;;;;;;8.50;4.43;;;6.00;99.90;;;;;;4157622;28;20484;-67
2021/04/17 05:09:16;;;;;;;27.98;5.13;;;6.00;99.90;;;;;;4157381;28;20037;-67
2021/04/17 05:11:16;;;;;;;9.65;4.53;;;5.90;99.90;;;;;;4158280;28;20033;-67
2021/04/17 05:13:17;;;;;;;8.32;4.45;;;6.00;99.90;;;;;;4181113;28;20121;-67
2021/04/17 05:15:17;;;;;;;8.55;4.68;;;6.00;99.90;;;;;;4159883;28;20046;-67
2021/04/17 05:17:18;;;;;;;11.15;4.90;;;5.90;99.90;;;;;;4157072;28;20117;-67
2021/04/17 05:19:19;;;;;;;10.18;5.20;;;6.00;99.90;;;;;;4158436;28;20057;-68
2021/04/17 05:21:19;;;;;;;9.00;4.80;;;6.00;99.90;;;;;;4156542;28;20022;-67
2021/04/17 05:23:20;;;;;;;8.98;4.50;;;6.00;99.90;;;;;;4149368;28;20076;-67
2021/04/17 05:25:20;;;;;;;9.88;5.78;;;5.90;99.90;;;;;;4158578;28;21648;-67
2021/04/17 05:27:21;;;;;;;9.75;5.15;;;5.90;99.90;;;;;;4157606;28;20091;-67
2021/04/17 05:29:22;;;;;;;10.45;5.50;;;5.90;99.90;;;;;;4158482;28;20037;-67
2021/04/17 05:31:22;;;;;;;9.27;5.00;;;5.90;99.90;;;;;;4158373;28;20132;-67
2021/04/17 05:33:23;;;;;;;9.73;5.22;;;5.90;99.90;;;;;;4182541;28;20489;-67
2021/04/17 05:35:23;;;;;;;9.02;5.25;;;5.90;99.90;;;;;;4157920;28;20152;-67
2021/04/17 05:37:24;;;;;;;11.80;5.10;;;5.90;99.90;;;;;;4154244;28;20502;-67
2021/04/17 05:39:25;;;;;;;14.38;4.88;;;5.90;99.90;;;;;;4154747;28;20048;-67
2021/04/17 05:41:26;;;;;;;10.68;5.82;;;6.00;99.90;;;;;;4182916;28;20047;-67
2021/04/17 05:43:27;;;;;;;10.38;5.35;;;6.00;99.90;;;;;;4156667;28;20045;-67
2021/04/17 05:45:28;;;;;;;10.27;4.82;;;6.00;99.90;;;;;;4158861;28;20029;-67
2021/04/17 05:47:29;;;;;;;13.57;5.30;;;6.00;99.90;;;;;;4157254;28;20109;-67
2021/04/17 05:49:30;;;;;;;14.43;6.50;;;6.00;99.90;;;;;;4157779;28;20516;-67
2021/04/17 05:51:35;;;;;;;13.23;5.35;;;6.10;99.90;;;;;;4151325;28;20107;-67
2021/04/17 05:53:36;;;;;;;11.02;5.45;;;6.10;99.90;;;;;;4156234;28;20132;-67
2021/04/17 05:55:37;;;;;;;11.32;5.45;;;6.20;99.90;;;;;;4156770;28;20049;-67
2021/04/17 05:57:37;;;;;;;10.43;5.28;;;6.20;99.90;;;;;;4156169;28;20425;-67
2021/04/17 05:59:38;;;;;;;12.93;5.85;;;6.20;99.90;;;;;;4155838;28;20052;-67
2021/04/17 06:01:39;;;;;;;11.30;5.90;;;6.20;99.90;;;;;;4157666;28;20083;-67
2021/04/17 06:03:40;;;;;;;12.35;6.13;;;6.30;99.90;;;;;;4150256;28;20065;-67
2021/04/17 06:05:41;;;;;;;14.73;6.10;;;6.30;99.90;;;;;;4155166;28;20038;-67
2021/04/17 06:07:41;;;;;;;11.02;5.55;;;6.40;99.90;;;;;;4156389;28;20037;-67
2021/04/17 06:09:42;;;;;;;12.80;6.53;;;6.40;99.90;;;;;;4155062;28;20107;-67
2021/04/17 06:11:43;;;;;;;11.80;5.90;;;6.40;99.90;;;;;;4155067;28;20042;-67
2021/04/17 06:13:43;;;;;;;15.43;6.30;;;6.40;99.90;;;;;;4155497;28;20045;-67
2021/04/17 06:15:44;;;;;;;16.25;6.88;;;6.40;99.90;;;;;;4157300;28;20048;-67
2021/04/17 06:17:44;;;;;;;12.30;5.95;;;6.40;99.90;;;;;;4182586;28;21449;-67
2021/04/17 06:19:45;;;;;;;11.77;6.07;;;6.50;99.90;;;;;;4153490;28;20042;-67
2021/04/17 06:21:46;;;;;;;10.32;6.03;;;6.50;99.90;;;;;;4158014;28;20052;-67
2021/04/17 06:23:46;;;;;;;14.20;6.45;;;6.50;99.90;;;;;;4157414;28;20128;-67
2021/04/17 06:25:47;;;;;;;13.32;6.07;;;6.60;99.90;;;;;;4157318;28;20394;-67
2021/04/17 06:27:48;;;;;;;19.17;6.75;;;6.60;99.90;;;;;;4158434;28;20049;-67
2021/04/17 06:29:49;;;;;;;12.15;6.68;;;6.70;99.90;;;;;;4156470;28;20442;-67
2021/04/17 06:31:49;;;;;;;13.48;6.38;;;6.70;99.90;;;;;;4158278;28;20037;-67
2021/04/17 06:33:50;;;;;;;12.27;6.55;;;6.70;99.90;;;;;;4157430;28;20041;-67
2021/04/17 06:35:51;;;;;;;14.27;7.35;;;6.70;99.90;;;;;;4155902;28;20033;-68
2021/04/17 06:37:52;;;;;;;12.90;7.00;;;6.80;99.90;;;;;;4171979;28;20094;-68
2021/04/17 06:39:52;;;;;;;12.98;7.25;;;6.80;99.90;;;;;;4157353;28;20095;-68
2021/04/17 06:41:55;;;;;;;14.25;7.45;;;6.90;99.90;;;;;;4158649;28;20044;-67
2021/04/17 06:43:56;;;;;;;11.50;6.38;;;6.90;99.90;;;;;;4154893;28;20033;-67
2021/04/17 06:45:58;;;;;;;15.23;6.60;;;7.00;99.90;;;;;;4153981;28;20069;-67
2021/04/17 06:47:58;;;;;;;13.38;6.95;;;7.10;99.90;;;;;;4152856;28;20409;-67
2021/04/17 06:50:01;;;;;;;15.90;7.15;;;7.10;99.90;;;;;;4156941;28;20088;-67
2021/04/17 06:52:02;;;;;;;12.30;6.57;;;7.20;99.90;;;;;;4156180;28;20033;-67
2021/04/17 06:54:05;;;;;;;13.82;6.78;;;7.20;99.90;;;;;;4171178;28;20052;-67
2021/04/17 06:56:06;;;;;;;14.63;6.70;;;7.30;99.90;;;;;;4156099;28;20040;-68
2021/04/17 06:58:07;;;;;;;17.23;8.00;;;7.30;99.90;;;;;;4151526;28;20038;-67
2021/04/17 07:00:10;;;;;;;12.88;7.13;;;7.40;99.90;;;;;;4157154;28;20132;-67
2021/04/17 07:02:17;;;;;;;14.35;7.40;;;7.40;99.90;;;;;;4154222;28;20131;-67
2021/04/17 07:04:18;;;;;;;13.00;6.88;;;7.40;99.90;;;;;;4155461;28;20045;-67
2021/04/17 07:06:19;;;;;;;14.77;7.18;;;7.50;99.90;;;;;;4156436;28;20559;-67
2021/04/17 07:08:19;;;;;;;14.38;6.95;;;7.50;99.90;;;;;;4157528;28;20048;-68
2021/04/17 07:10:20;;;;;;;11.48;5.90;;;7.60;99.90;;;;;;4137793;28;20116;-68
2021/04/17 07:12:20;;;;;;;15.80;7.38;;;7.60;99.90;;;;;;4163883;28;20068;-68
2021/04/17 07:14:21;;;;;;;12.02;6.90;;;7.60;99.90;;;;;;4155382;28;20052;-68
2021/04/17 07:16:22;;;;;;;12.75;6.38;;;7.70;99.90;;;;;;4155642;28;20030;-68
2021/04/17 07:18:25;;;;;;;12.80;7.00;;;7.70;99.90;;;;;;4156326;28;20731;-68
2021/04/17 07:20:28;;;;;;;13.27;6.80;;;7.80;99.90;;;;;;4156223;28;20044;-68
2021/04/17 07:22:32;;;;;;;11.45;6.05;;;7.80;99.90;;;;;;4155475;28;20041;-68
2021/04/17 07:24:32;;;;;;;11.88;6.60;;;7.90;99.90;;;;;;4153992;28;20062;-68
2021/04/17 07:26:33;;;;;;;10.02;6.25;;;8.00;99.90;;;;;;4155787;28;20045;-68
2021/04/17 07:28:39;;;;;;;9.35;5.85;;;8.00;99.90;;;;;;4152036;28;20055;-68
2021/04/17 07:30:43;;;;;;;11.80;6.38;;;8.10;99.90;;;;;;4169248;28;20033;-68
2021/04/17 07:33:14;;;;;;;16.35;5.80;;;8.10;99.90;;;;;;4156663;28;20501;-67
2021/04/17 07:35:19;;;;;;;16.40;6.55;;;8.10;99.90;;;;;;4156387;28;20049;-68
2021/04/17 07:37:19;;;;;;;11.93;5.55;;;8.20;99.90;;;;;;4171081;28;20117;-68
2021/04/17 07:39:34;;;;;;;11.73;5.35;;;8.30;99.90;;;;;;4155940;28;20034;-67
2021/04/17 07:41:38;;;;;;;10.95;5.30;;;8.30;99.90;;;;;;4179065;28;20104;-67
2021/04/17 07:44:00;;;;;;;12.13;5.38;;;8.40;99.90;;;;;;4165657;28;20067;-67
2021/04/17 07:46:01;;;;;;;11.07;4.60;;;8.50;99.90;;;;;;4152442;28;20072;-67
2021/04/17 07:48:25;;;;;;;11.88;5.22;;;8.50;99.90;;;;;;4154482;28;20032;-66
2021/04/17 07:50:34;;;;;;;10.45;5.20;;;8.60;99.90;;;;;;4166648;28;20036;-67
2021/04/17 07:52:35;;;;;;;14.48;5.70;;;8.70;99.90;;;;;;4135974;28;20770;-67
2021/04/17 07:54:40;;;;;;;8.80;5.10;;;8.80;99.90;;;;;;4154848;28;20096;-66
2021/04/17 07:56:41;;;;;;;8.93;4.97;;;8.80;99.90;;;;;;4151910;28;20472;-67
2021/04/17 07:58:49;;;;;;;11.15;5.03;;;8.90;99.90;;;;;;4154450;28;20119;-66
2021/04/17 08:00:51;;;;;;;14.07;5.22;;;9.10;99.90;;;;;;4177712;28;20089;-66
2021/04/17 08:02:53;;;;;;;18.92;5.40;;;9.20;99.90;;;;;;4153492;28;20045;-66
2021/04/17 08:04:53;;;;;;;10.98;5.25;;;9.20;99.90;;;;;;4180447;28;20121;-66
2021/04/17 08:06:55;;;;;;;8.75;4.70;;;9.30;99.90;;;;;;4169687;28;20440;-66
2021/04/17 08:08:59;;;;;;;8.55;4.28;;;9.40;99.90;;;;;;4156891;28;20116;-66
2021/04/17 08:11:01;;;;;;;8.50;4.32;;;9.40;99.90;;;;;;4154958;28;20041;-66
2021/04/17 08:13:03;;;;;;;13.07;4.35;;;9.50;99.90;;;;;;4157682;28;20549;-66
2021/04/17 08:15:06;;;;;;;9.63;4.50;;;9.60;99.90;;;;;;4155689;28;20045;-66
2021/04/17 08:17:07;;;;;;;6.85;3.92;;;9.70;99.90;;;;;;4157031;28;20036;-66
2021/04/17 08:19:07;;;;;;;8.07;3.65;;;9.70;99.90;;;;;;4157505;28;20042;-66
2021/04/17 08:21:09;;;;;;;11.10;4.45;;;9.80;99.90;;;;;;4156931;28;20056;-66
2021/04/17 08:23:10;;;;;;;7.95;3.80;;;9.90;99.90;;;;;;4156374;28;20030;-66
2021/04/17 08:25:12;;;;;;;8.95;4.20;;;9.90;99.90;;;;;;4158167;28;20498;-66
2021/04/17 08:27:13;;;;;;;13.52;4.07;;;10.00;99.90;;;;;;4157692;28;20160;-66
2021/04/17 08:29:52;;;;;;;33.17;5.38;;;10.10;99.90;;;;;;4162422;28;20029;-66
2021/04/17 08:31:53;;;;;;;8.57;4.05;;;10.20;99.90;;;;;;4155657;28;20083;-67
2021/04/17 08:34:14;;;;;;;9.80;3.95;;;10.30;99.90;;;;;;4153498;28;20057;-66
2021/04/17 08:36:31;;;;;;;7.25;3.28;;;10.50;99.90;;;;;;4158092;28;20044;-66
2021/04/17 08:38:35;;;;;;;8.90;3.58;;;10.60;99.90;;;;;;4158301;28;20084;-66
2021/04/17 08:40:36;;;;;;;9.40;3.50;;;10.70;99.90;;;;;;4158839;28;20042;-66
2021/04/17 08:42:39;;;;;;;7.72;3.28;;;10.80;99.90;;;;;;4158743;28;20068;-66
2021/04/17 08:44:42;;;;;;;8.05;3.65;;;10.90;99.90;;;;;;4158225;28;20051;-66
2021/04/17 08:46:43;;;;;;;11.18;4.20;;;11.00;99.90;;;;;;4159279;28;20045;-66
2021/04/17 08:48:58;;;;;;;8.20;4.15;;;11.10;99.90;;;;;;4158235;28;20434;-66
2021/04/17 08:51:22;;;;;;;8.65;4.05;;;11.30;99.90;;;;;;4159035;28;20033;-66
2021/04/17 08:53:22;;;;;;;;;;;11.40;99.90;;;;;;4158672;28;20056;-66
2021/04/17 08:55:25;;;;;;;7.38;3.50;;;11.50;99.90;;;;;;4157621;28;19913;-67
2021/04/17 08:57:26;;;;;;;7.22;3.20;;;11.60;99.90;;;;;;4159109;28;20628;-66
2021/04/17 08:59:29;;;;;;;9.25;3.88;;;11.80;99.90;;;;;;4161270;28;20073;-66
2021/04/17 09:01:41;;;;;;;8.35;3.85;;;11.90;99.90;;;;;;4158732;28;20029;-66
2021/04/17 09:03:46;;;;;;;7.88;3.22;;;12.00;99.90;;;;;;4157938;28;20033;-66
2021/04/17 09:05:47;;;;;;;5.88;3.25;;;12.20;99.90;;;;;;4158811;28;20037;-66
2021/04/17 09:08:08;;;;;;;6.55;3.70;;;12.30;99.90;;;;;;4159576;28;20165;-66
2021/04/17 09:10:32;;;;;;;9.43;3.20;;;12.40;99.90;;;;;;4158705;28;20033;-66
2021/04/17 09:12:32;;;;;;;6.25;3.00;;;12.60;99.90;;;;;;4158440;28;20637;-66
2021/04/17 09:14:33;;;;;;;5.25;3.22;;;12.80;99.90;;;;;;4158241;28;20049;-66
2021/04/17 09:16:40;;;;;;;7.70;3.35;;;12.90;99.90;;;;;;4157642;28;20046;-66
2021/04/17 09:18:41;;;;;;;5.47;2.97;;;13.00;99.90;;;;;;4157204;28;20045;-66
2021/04/17 09:20:42;;;;;;;6.85;3.33;;;13.00;99.90;;;;;;4157145;28;20041;-67
2021/04/17 09:22:45;;;;;;;6.82;3.28;;;13.00;99.90;;;;;;4159029;28;20107;-67
2021/04/17 09:24:45;;;;;;;9.02;3.25;;;13.10;99.90;;;;;;4158303;28;20111;-67
2021/04/17 09:26:46;;;;;;;6.50;3.33;;;13.10;99.90;;;;;;4158709;28;20497;-67
2021/04/17 09:28:47;;;;;;;5.93;3.40;;;13.20;99.90;;;;;;4159620;28;20033;-67
2021/04/17 09:30:51;;;;;;;7.25;3.38;;;13.20;99.90;;;;;;4158994;28;20481;-67
2021/04/17 09:32:54;;;;;;;7.72;3.55;;;13.30;99.90;;;;;;4157470;28;20041;-67
2021/04/17 09:34:55;;;;;;;8.85;3.35;;;13.40;99.90;;;;;;4184894;28;20043;-67
2021/04/17 09:37:09;;;;;;;7.32;2.97;;;13.50;99.90;;;;;;4158225;28;20477;-67
2021/04/17 09:39:30;;;;;;;5.72;2.90;;;13.60;99.90;;;;;;4157755;28;20048;-67
2021/04/17 09:41:51;;;;;;;9.75;3.45;;;13.60;98.40;;;;;;4157384;28;20045;-67
2021/04/17 09:43:56;;;;;;;5.35;2.40;;;13.60;97.30;;;;;;4158223;28;20095;-67
2021/04/17 09:46:02;;;;;;;6.60;2.70;;;13.60;99.90;;;;;;4158982;28;20057;-67
2021/04/17 09:48:09;;;;;;;6.25;2.92;;;13.60;95.40;;;;;;4156084;28;20575;-67
2021/04/17 09:50:31;;;;;;;5.82;2.97;;;13.70;96.00;;;;;;4155528;28;20485;-67
2021/04/17 09:52:32;;;;;;;6.50;3.10;;;13.80;94.60;;;;;;4156540;28;20459;-67
2021/04/17 09:54:33;;;;;;;7.57;2.60;;;13.90;95.80;;;;;;4157175;28;20049;-67
2021/04/17 09:56:41;;;;;;;3.80;2.13;;;13.90;93.40;;;;;;4157807;28;20063;-67
2021/04/17 09:58:44;;;;;;;6.60;2.67;;;13.90;96.00;;;;;;4158002;28;20026;-67
2021/04/17 10:00:44;;;;;;;9.20;3.20;;;14.00;95.60;;;;;;4160060;28;20033;-67
2021/04/17 10:02:48;;;;;;;5.32;2.83;;;14.00;95.30;;;;;;4158700;28;20104;-67
2021/04/17 10:04:51;;;;;;;5.45;2.55;;;14.10;93.50;;;;;;4156820;28;20057;-67
2021/04/17 10:06:59;;;;;;;5.22;2.78;;;14.10;93.60;;;;;;4157436;28;20037;-67
2021/04/17 10:09:11;;;;;;;6.88;2.22;;;14.10;92.10;;;;;;4157549;28;20049;-67
2021/04/17 10:11:28;;;;;;;8.77;3.00;;;14.10;89.90;;;;;;4157815;28;20037;-67
2021/04/17 10:13:39;;;;;;;5.97;2.85;;;14.10;91.10;;;;;;4157186;28;20045;-67
2021/04/17 10:15:46;;;;;;;4.63;2.45;;;14.10;93.70;;;;;;4156042;28;20030;-67
2021/04/17 10:17:51;;;;;;;10.38;3.05;;;14.20;93.70;;;;;;4157653;28;20029;-67
2021/04/17 10:19:52;;;;;;;6.28;3.05;;;14.20;95.00;;;;;;4157751;28;20429;-67
2021/04/17 10:22:00;;;;;;;6.20;2.72;;;14.20;96.50;;;;;;4157175;28;20123;-67
2021/04/17 10:24:24;;;;;;;5.55;2.92;;;14.10;94.40;;;;;;4157402;28;20029;-67
2021/04/17 10:26:25;;;;;;;5.97;2.70;;;13.90;93.10;;;;;;4157628;28;20045;-67
2021/04/17 10:28:26;;;;;;;6.40;2.85;;;14.00;93.00;;;;;;4156934;28;20481;-67
2021/04/17 10:30:31;;;;;;;6.47;3.13;;;14.10;95.50;;;;;;4157936;28;20103;-67
2021/04/17 10:32:31;;;;;;;9.25;3.22;;;14.30;93.10;;;;;;4172058;28;20051;-67
2021/04/17 10:34:32;;;;;;;7.25;2.92;;;14.30;92.10;;;;;;4155736;28;20038;-67
2021/04/17 10:36:33;;;;;;;6.22;2.85;;;14.20;95.70;;;;;;4154793;28;20069;-67
2021/04/17 10:38:36;;;;;;;4.25;2.30;;;14.20;95.90;;;;;;4157841;28;20037;-67
2021/04/17 10:40:37;;;;;;;4.15;2.40;;;14.30;97.90;;;;;;4157073;28;20036;-67
2021/04/17 10:42:56;;;;;;;17.13;3.40;;;14.30;94.50;;;;;;4157726;28;20099;-67
2021/04/17 10:44:56;;;;;;;5.55;2.90;;;14.30;96.50;;;;;;4152278;28;20477;-67